Arethusa — 9HJR9 — position and weather

sailwx.info

Track history (hours):
 
Tides and Currents Weather Stations Pressure Air Temp Water Temp Dewpoint Dewpoint Depression Visibility Wind Speed Wind Dir Waves Ship Positions

Arethusa

Last reported at 2018-Feb-19 19:45 UTC. Time now 2018-Feb-20 00:02 UTC.
Position N 45°39' E 013°46'.

Length 60 m; draft 3 m.

Type: Passenger vessel. MMSI: 249069000.

Date/timePositionNaut miles runAvg speedWind from/ knotsBaromVisibWave heightAir tempDewpointWater temp
2018-Feb-19 19:45N 45°39' E 013°46'0 0.0
2018-Feb-19 19:26N 45°39' E 013°46'0 0.0
2018-Feb-19 18:57N 45°39' E 013°46'0 0.0
2018-Feb-19 18:25N 45°39' E 013°46'0 0.0
2018-Feb-19 17:57N 45°39' E 013°46'0 0.9
2018-Feb-19 17:30N 45°39' E 013°45'4 7.9
2018-Feb-19 17:00N 45°39' E 013°40'4 8.3
2018-Feb-19 16:30N 45°43' E 013°37'3 0.3
2018-Feb-19 06:17N 45°46' E 013°38'2 8.6
2018-Feb-19 06:00N 45°44' E 013°38'5 9.5
2018-Feb-19 05:30N 45°39' E 013°37'5 9.5
2018-Feb-19 05:00N 45°35' E 013°33'510.1
2018-Feb-19 04:30N 45°32' E 013°28'4 7.0
2018-Feb-19 04:00N 45°29' E 013°26'5 9.7
2018-Feb-19 03:30N 45°24' E 013°27'5 9.6
2018-Feb-19 03:00N 45°19' E 013°28'5 9.2
2018-Feb-19 02:30N 45°15' E 013°29'4 8.8
2018-Feb-19 02:00N 45°10' E 013°30'4 8.8
2018-Feb-19 01:30N 45°07' E 013°33'4 5.4
2018-Feb-19 00:46N 45°05' E 013°38'0 0.0
2018-Feb-19 00:22N 45°05' E 013°38'0 0.0
2018-Feb-18 23:55N 45°05' E 013°38'0 0.0
2018-Feb-18 23:22N 45°05' E 013°38'0 0.0
2018-Feb-18 22:19N 45°05' E 013°38'0 0.0
2018-Feb-18 21:58N 45°05' E 013°38'0 0.0
2018-Feb-18 21:22N 45°05' E 013°38'0 0.0
2018-Feb-18 20:40N 45°05' E 013°38'0 0.0
2018-Feb-18 19:37N 45°05' E 013°38'0 0.0
2018-Feb-18 19:19N 45°05' E 013°38'0 0.0
2018-Feb-18 18:58N 45°05' E 013°38'0 0.0
2018-Feb-18 18:10N 45°05' E 013°38'0 0.0
2018-Feb-18 17:31N 45°05' E 013°38'0 0.0
2018-Feb-18 17:28N 45°05' E 013°38'0 0.0
2018-Feb-18 16:55N 45°05' E 013°38'0 0.0
2018-Feb-18 16:16N 45°05' E 013°38'0 0.0
2018-Feb-18 15:52N 45°05' E 013°38'0 0.0
2018-Feb-18 15:28N 45°05' E 013°38'0 0.0
2018-Feb-18 14:58N 45°05' E 013°38'0 0.0
2018-Feb-18 14:25N 45°05' E 013°38'0 0.0
2018-Feb-18 13:58N 45°05' E 013°38'0 0.0
2018-Feb-18 13:19N 45°05' E 013°38'0 0.0
2018-Feb-18 12:58N 45°05' E 013°38'0 0.0
2018-Feb-18 12:25N 45°05' E 013°38'0 0.0
2018-Feb-18 11:58N 45°05' E 013°38'0 0.0
2018-Feb-18 11:28N 45°05' E 013°38'0 0.0
2018-Feb-18 10:58N 45°05' E 013°38'0 0.0
2018-Feb-18 10:28N 45°05' E 013°38'0 0.0
2018-Feb-18 09:43N 45°05' E 013°38'0 0.0
2018-Feb-18 09:22N 45°05' E 013°38'0 0.0
2018-Feb-18 08:58N 45°05' E 013°38'0 0.0
2018-Feb-18 08:25N 45°05' E 013°38'0 0.0
2018-Feb-18 07:49N 45°05' E 013°38'0 0.0
2018-Feb-18 07:22N 45°05' E 013°38'0 1.4
2018-Feb-18 07:00N 45°05' E 013°37'510.3
2018-Feb-18 06:30N 45°00' E 013°37'611.5
2018-Feb-18 06:00N 44°55' E 013°41'1 0.1
2018-Feb-17 04:57N 44°56' E 013°39'410.1
2018-Feb-17 04:30N 44°60' E 013°36'510.1
2018-Feb-17 04:00N 45°04' E 013°33'510.1
2018-Feb-17 03:30N 45°09' E 013°31'510.2
2018-Feb-17 03:00N 45°14' E 013°28'5 9.4
2018-Feb-17 02:30N 45°18' E 013°26'5 9.2
2018-Feb-17 02:01N 45°23' E 013°24'5 9.3
2018-Feb-17 01:30N 45°27' E 013°21'5 9.2
2018-Feb-17 01:00N 45°31' E 013°19'4 7.7
2018-Feb-17 00:30N 45°34' E 013°23'5 9.6
2018-Feb-17 00:00N 45°36' E 013°29'5 9.1
2018-Feb-16 23:30N 45°37' E 013°35'5 9.2
2018-Feb-16 23:01N 45°35' E 013°41'3 5.2
2018-Feb-16 22:30N 45°33' E 013°44'0 0.0
2018-Feb-16 20:27N 45°33' E 013°44'0 0.0
2018-Feb-16 19:57N 45°33' E 013°44'0 0.0
2018-Feb-16 19:21N 45°33' E 013°44'0 0.0
2018-Feb-16 19:00N 45°33' E 013°44'0 0.0
2018-Feb-16 17:36N 45°33' E 013°44'0 0.0
2018-Feb-16 17:27N 45°33' E 013°44'0 0.0
2018-Feb-16 16:54N 45°33' E 013°44'0 0.0
2018-Feb-16 16:18N 45°33' E 013°44'0 0.0
2018-Feb-16 16:00N 45°33' E 013°44'0 0.0
2018-Feb-16 15:30N 45°33' E 013°44'0 0.0
2018-Feb-16 14:54N 45°33' E 013°44'0 0.0
2018-Feb-16 14:30N 45°33' E 013°44'0 0.0
2018-Feb-16 14:00N 45°33' E 013°44'0 0.0
2018-Feb-16 13:30N 45°33' E 013°44'0 0.0
2018-Feb-16 13:00N 45°33' E 013°44'0 0.0
2018-Feb-16 12:30N 45°33' E 013°44'0 0.0
2018-Feb-16 12:00N 45°33' E 013°44'0 0.0
2018-Feb-16 11:30N 45°33' E 013°44'0 0.0
2018-Feb-16 11:00N 45°33' E 013°44'0 0.0
2018-Feb-16 10:24N 45°33' E 013°44'0 0.0
2018-Feb-16 10:00N 45°33' E 013°44'0 0.0
2018-Feb-16 09:27N 45°33' E 013°44'0 0.0
2018-Feb-16 08:54N 45°33' E 013°44'0 0.0
2018-Feb-16 08:30N 45°33' E 013°44'0 0.0
2018-Feb-16 08:00N 45°33' E 013°44'0 0.0
2018-Feb-16 07:30N 45°33' E 013°44'0 0.0
2018-Feb-16 07:00N 45°33' E 013°44'0 0.0
2018-Feb-16 06:27N 45°33' E 013°44'1 3.4
2018-Feb-16 06:00N 45°34' E 013°42'0 0.4
2018-Feb-16 05:30N 45°34' E 013°42'0 0.0
2018-Feb-16 04:54N 45°34' E 013°42'0 0.0
2018-Feb-16 04:27N 45°34' E 013°42'0 0.0
2018-Feb-16 04:00N 45°34' E 013°42'0 0.0
2018-Feb-16 03:30N 45°34' E 013°42'0 0.0
2018-Feb-16 03:00N 45°34' E 013°42'0 0.0
2018-Feb-16 02:30N 45°34' E 013°42'0 0.0
2018-Feb-16 02:00N 45°34' E 013°42'0 0.0
2018-Feb-16 01:30N 45°34' E 013°42'0 0.0
2018-Feb-16 00:57N 45°34' E 013°42'0 0.0
2018-Feb-16 00:27N 45°34' E 013°42'0 0.0
2018-Feb-16 00:00N 45°34' E 013°42'0 0.0
2018-Feb-15 23:18N 45°34' E 013°42'0 0.0
2018-Feb-15 23:00N 45°34' E 013°42'0 0.0
2018-Feb-15 22:30N 45°34' E 013°42'1 2.5
2018-Feb-15 22:00N 45°34' E 013°40'5 9.8
2018-Feb-15 21:30N 45°34' E 013°33'510.2
2018-Feb-15 21:00N 45°32' E 013°27'510.4
2018-Feb-15 20:31N 45°30' E 013°20'510.3
2018-Feb-15 20:01N 45°29' E 013°13'510.3
2018-Feb-15 19:31N 45°28' E 013°06'710.4
2018-Feb-15 18:53N 45°26' E 012°57'1810.3
2018-Feb-15 17:07N 45°22' E 012°31'110.2
2018-Feb-15 17:00N 45°23' E 012°30'510.5
2018-Feb-15 16:29N 45°26' E 012°24'3 5.4
2018-Feb-15 16:00N 45°26' E 012°20'1 1.7
2018-Feb-15 15:30N 45°26' E 012°19'0 0.0
2018-Feb-15 15:00N 45°26' E 012°19'0 0.0
2018-Feb-15 14:29N 45°26' E 012°19'0 0.0
2018-Feb-15 14:00N 45°26' E 012°19'0 0.0
2018-Feb-15 13:30N 45°26' E 012°19'0 0.0
2018-Feb-15 12:59N 45°26' E 012°19'0 0.0
2018-Feb-15 12:30N 45°26' E 012°19'0 0.0
2018-Feb-15 12:00N 45°26' E 012°19'0 0.0
2018-Feb-15 11:30N 45°26' E 012°19'0 0.0
2018-Feb-15 11:00N 45°26' E 012°19'0 0.0
2018-Feb-15 10:30N 45°26' E 012°19'0 0.0
2018-Feb-15 10:00N 45°26' E 012°19'0 0.0
2018-Feb-15 09:30N 45°26' E 012°19'0 0.0
2018-Feb-15 09:00N 45°26' E 012°19'0 0.0
2018-Feb-15 08:30N 45°26' E 012°19'0 0.0
2018-Feb-15 08:00N 45°26' E 012°19'0 0.0
2018-Feb-15 07:30N 45°26' E 012°19'0 0.0
2018-Feb-15 07:00N 45°26' E 012°19'0 0.0
2018-Feb-15 06:30N 45°26' E 012°19'0 0.0
2018-Feb-15 05:59N 45°26' E 012°19'0 0.0
2018-Feb-15 05:30N 45°26' E 012°19'0 0.0
2018-Feb-15 05:00N 45°26' E 012°19'0 0.0
2018-Feb-15 04:30N 45°26' E 012°19'0 0.0
2018-Feb-15 04:00N 45°26' E 012°19'0 0.0
2018-Feb-15 03:30N 45°26' E 012°19'0 0.0
2018-Feb-15 03:00N 45°26' E 012°19'0 0.0
2018-Feb-15 02:30N 45°26' E 012°19'0 0.0
2018-Feb-15 02:00N 45°26' E 012°19'0 0.0
2018-Feb-15 01:30N 45°26' E 012°19'0 0.0
2018-Feb-15 01:00N 45°26' E 012°19'0 0.0
2018-Feb-15 00:30N 45°26' E 012°19'0 0.0
2018-Feb-15 00:00N 45°26' E 012°19'0 0.0
2018-Feb-14 23:30N 45°26' E 012°19'0 0.0
2018-Feb-14 23:00N 45°26' E 012°19'1 3.0
2018-Feb-14 22:30N 45°26' E 012°21'3 5.8
2018-Feb-14 22:00N 45°25' E 012°25'4 7.9
2018-Feb-14 21:30N 45°23' E 012°30'15 9.9
2018-Feb-14 19:56N 45°26' E 012°52'610.6
2018-Feb-14 19:25N 45°28' E 012°59'410.7
2018-Feb-14 19:00N 45°30' E 013°05'510.7
2018-Feb-14 18:30N 45°32' E 013°12'510.7
2018-Feb-14 18:00N 45°34' E 013°20'510.7
2018-Feb-14 17:30N 45°36' E 013°26'510.6
2018-Feb-14 17:00N 45°38' E 013°33'510.4
2018-Feb-14 16:30N 45°39' E 013°41'4 1.6
2018-Feb-14 14:12N 45°39' E 013°46'0 0.0
2018-Feb-14 13:06N 45°39' E 013°46'0 0.0
2018-Feb-14 13:00N 45°39' E 013°46'0 0.0
2018-Feb-14 07:36N 45°39' E 013°46'0 0.0
2018-Feb-14 07:18N 45°39' E 013°46'0 0.0
2018-Feb-14 06:48N 45°39' E 013°46'0 0.0
2018-Feb-14 06:24N 45°39' E 013°46'0 0.0
2018-Feb-14 05:06N 45°39' E 013°46'0 0.0
2018-Feb-14 04:42N 45°39' E 013°46'0 0.0
2018-Feb-14 04:30N 45°39' E 013°46'0 0.0
2018-Feb-14 00:54N 45°39' E 013°46'0 0.0
2018-Feb-14 00:24N 45°39' E 013°46'0 0.0
2018-Feb-13 23:18N 45°39' E 013°46'0 0.0
2018-Feb-13 22:06N 45°39' E 013°46'0 0.0
2018-Feb-13 21:42N 45°39' E 013°46'0 0.0
2018-Feb-13 20:06N 45°39' E 013°46'0 0.0
2018-Feb-13 19:36N 45°39' E 013°46'0 0.0
2018-Feb-13 18:06N 45°39' E 013°46'0 0.0
2018-Feb-13 11:36N 45°39' E 013°46'0 0.0
2018-Feb-13 10:12N 45°39' E 013°46'0 0.0
2018-Feb-13 06:30N 45°39' E 013°46'0 0.0
2018-Feb-12 18:32N 45°39' E 013°46'0 0.0
2018-Feb-12 18:27N 45°39' E 013°46'0 0.0
2018-Feb-12 17:55N 45°39' E 013°46'0 0.0
2018-Feb-12 17:30N 45°39' E 013°46'2 4.8
2018-Feb-12 17:00N 45°39' E 013°42'5 9.2
2018-Feb-12 16:30N 45°41' E 013°37'5 9.7
2018-Feb-12 16:00N 45°46' E 013°38'0 0.0
2018-Feb-12 06:01N 45°46' E 013°38'0 5.3
2018-Feb-12 06:00N 45°46' E 013°38'4 7.5
2018-Feb-12 05:30N 45°42' E 013°38'4 8.3
2018-Feb-12 05:00N 45°38' E 013°37'4 8.2
2018-Feb-12 04:30N 45°35' E 013°33'4 8.3
2018-Feb-12 04:00N 45°33' E 013°29'4 7.3
2018-Feb-12 03:30N 45°30' E 013°26'4 8.7
2018-Feb-12 03:00N 45°25' E 013°27'510.3
2018-Feb-12 02:30N 45°20' E 013°28'510.1
2018-Feb-12 02:00N 45°15' E 013°28'510.0
2018-Feb-12 01:30N 45°10' E 013°29'5 9.9
2018-Feb-12 01:00N 45°06' E 013°33'4 5.8
2018-Feb-12 00:22N 45°05' E 013°38'0 0.0
2018-Feb-11 23:37N 45°05' E 013°38'0 0.0
2018-Feb-11 23:25N 45°05' E 013°38'0 0.0
2018-Feb-11 22:55N 45°05' E 013°38'0 0.0
2018-Feb-11 22:28N 45°05' E 013°38'0 0.0
2018-Feb-11 21:49N 45°05' E 013°38'0 0.0
2018-Feb-11 21:28N 45°05' E 013°38'0 0.0
2018-Feb-11 20:52N 45°05' E 013°38'0 0.0
2018-Feb-11 19:04N 45°05' E 013°38'0 0.0
2018-Feb-11 18:58N 45°05' E 013°38'0 0.0
2018-Feb-11 18:25N 45°05' E 013°38'0 0.0
2018-Feb-11 17:52N 45°05' E 013°38'0 0.0
2018-Feb-11 17:28N 45°05' E 013°38'0 0.0
2018-Feb-11 16:10N 45°05' E 013°38'0 0.0
2018-Feb-11 15:52N 45°05' E 013°38'0 0.0
2018-Feb-11 15:28N 45°05' E 013°38'0 0.0
2018-Feb-11 14:58N 45°05' E 013°38'0 0.0
2018-Feb-11 14:22N 45°05' E 013°38'0 0.0
2018-Feb-11 13:52N 45°05' E 013°38'0 0.0
2018-Feb-11 13:22N 45°05' E 013°38'0 0.0
2018-Feb-11 12:55N 45°05' E 013°38'0 0.0
2018-Feb-11 12:25N 45°05' E 013°38'0 0.0
2018-Feb-11 11:58N 45°05' E 013°38'0 0.1
2018-Feb-11 07:05N 45°05' E 013°38'1 9.7
2018-Feb-11 07:00N 45°05' E 013°37'510.5
2018-Feb-11 06:30N 44°59' E 013°38'7 0.3
2018-Feb-10 05:23N 44°53' E 013°42'4 9.1
2018-Feb-10 05:00N 44°56' E 013°39'5 9.1
2018-Feb-10 04:30N 45°00' E 013°36'5 8.9
2018-Feb-10 04:00N 45°04' E 013°33'4 9.0
2018-Feb-10 03:30N 45°08' E 013°31'4 8.9
2018-Feb-10 03:00N 45°13' E 013°29'5 9.1
2018-Feb-10 02:30N 45°17' E 013°27'5 9.0
2018-Feb-10 02:00N 45°21' E 013°25'5 9.0
2018-Feb-10 01:30N 45°25' E 013°22'5 9.1
2018-Feb-10 01:00N 45°30' E 013°20'4 7.6
2018-Feb-10 00:30N 45°33' E 013°20'5 9.1
2018-Feb-10 00:00N 45°35' E 013°26'5 9.3
2018-Feb-09 23:30N 45°37' E 013°33'5 9.5
2018-Feb-09 23:00N 45°36' E 013°39'210.2
2018-Feb-09 22:45N 45°34' E 013°42'  
Track history (hours):
 
Tides and Currents Weather Stations Pressure Air Temp Water Temp Dewpoint Dewpoint Depression Visibility Wind Speed Wind Dir Waves Ship Positions

Arethusa

Last reported at 2018-Feb-19 19:45 UTC. Time now 2018-Feb-20 00:02 UTC.
Position N 45°39' E 013°46'.

Length 60 m; draft 3 m.

Type: Passenger vessel. MMSI: 249069000.

Date/timePositionNaut miles runAvg speedWind from/ knotsBaromVisibWave heightAir tempDewpointWater temp
2018-Feb-19 19:45N 45°39' E 013°46'0 0.0
2018-Feb-19 19:26N 45°39' E 013°46'0 0.0
2018-Feb-19 18:57N 45°39' E 013°46'0 0.0
2018-Feb-19 18:25N 45°39' E 013°46'0 0.0
2018-Feb-19 17:57N 45°39' E 013°46'0 0.9
2018-Feb-19 17:30N 45°39' E 013°45'4 7.9
2018-Feb-19 17:00N 45°39' E 013°40'4 8.3
2018-Feb-19 16:30N 45°43' E 013°37'3 0.3
2018-Feb-19 06:17N 45°46' E 013°38'2 8.6
2018-Feb-19 06:00N 45°44' E 013°38'5 9.5
2018-Feb-19 05:30N 45°39' E 013°37'5 9.5
2018-Feb-19 05:00N 45°35' E 013°33'510.1
2018-Feb-19 04:30N 45°32' E 013°28'4 7.0
2018-Feb-19 04:00N 45°29' E 013°26'5 9.7
2018-Feb-19 03:30N 45°24' E 013°27'5 9.6
2018-Feb-19 03:00N 45°19' E 013°28'5 9.2
2018-Feb-19 02:30N 45°15' E 013°29'4 8.8
2018-Feb-19 02:00N 45°10' E 013°30'4 8.8
2018-Feb-19 01:30N 45°07' E 013°33'4 5.4
2018-Feb-19 00:46N 45°05' E 013°38'0 0.0
2018-Feb-19 00:22N 45°05' E 013°38'0 0.0
2018-Feb-18 23:55N 45°05' E 013°38'0 0.0
2018-Feb-18 23:22N 45°05' E 013°38'0 0.0
2018-Feb-18 22:19N 45°05' E 013°38'0 0.0
2018-Feb-18 21:58N 45°05' E 013°38'0 0.0
2018-Feb-18 21:22N 45°05' E 013°38'0 0.0
2018-Feb-18 20:40N 45°05' E 013°38'0 0.0
2018-Feb-18 19:37N 45°05' E 013°38'0 0.0
2018-Feb-18 19:19N 45°05' E 013°38'0 0.0
2018-Feb-18 18:58N 45°05' E 013°38'0 0.0
2018-Feb-18 18:10N 45°05' E 013°38'0 0.0
2018-Feb-18 17:31N 45°05' E 013°38'0 0.0
2018-Feb-18 17:28N 45°05' E 013°38'0 0.0
2018-Feb-18 16:55N 45°05' E 013°38'0 0.0
2018-Feb-18 16:16N 45°05' E 013°38'0 0.0
2018-Feb-18 15:52N 45°05' E 013°38'0 0.0
2018-Feb-18 15:28N 45°05' E 013°38'0 0.0
2018-Feb-18 14:58N 45°05' E 013°38'0 0.0
2018-Feb-18 14:25N 45°05' E 013°38'0 0.0
2018-Feb-18 13:58N 45°05' E 013°38'0 0.0
2018-Feb-18 13:19N 45°05' E 013°38'0 0.0
2018-Feb-18 12:58N 45°05' E 013°38'0 0.0
2018-Feb-18 12:25N 45°05' E 013°38'0 0.0
2018-Feb-18 11:58N 45°05' E 013°38'0 0.0
2018-Feb-18 11:28N 45°05' E 013°38'0 0.0
2018-Feb-18 10:58N 45°05' E 013°38'0 0.0
2018-Feb-18 10:28N 45°05' E 013°38'0 0.0
2018-Feb-18 09:43N 45°05' E 013°38'0 0.0
2018-Feb-18 09:22N 45°05' E 013°38'0 0.0
2018-Feb-18 08:58N 45°05' E 013°38'0 0.0
2018-Feb-18 08:25N 45°05' E 013°38'0 0.0
2018-Feb-18 07:49N 45°05' E 013°38'0 0.0
2018-Feb-18 07:22N 45°05' E 013°38'0 1.4
2018-Feb-18 07:00N 45°05' E 013°37'510.3
2018-Feb-18 06:30N 45°00' E 013°37'611.5
2018-Feb-18 06:00N 44°55' E 013°41'1 0.1
2018-Feb-17 04:57N 44°56' E 013°39'410.1
2018-Feb-17 04:30N 44°60' E 013°36'510.1
2018-Feb-17 04:00N 45°04' E 013°33'510.1
2018-Feb-17 03:30N 45°09' E 013°31'510.2
2018-Feb-17 03:00N 45°14' E 013°28'5 9.4
2018-Feb-17 02:30N 45°18' E 013°26'5 9.2
2018-Feb-17 02:01N 45°23' E 013°24'5 9.3
2018-Feb-17 01:30N 45°27' E 013°21'5 9.2
2018-Feb-17 01:00N 45°31' E 013°19'4 7.7
2018-Feb-17 00:30N 45°34' E 013°23'5 9.6
2018-Feb-17 00:00N 45°36' E 013°29'5 9.1
2018-Feb-16 23:30N 45°37' E 013°35'5 9.2
2018-Feb-16 23:01N 45°35' E 013°41'3 5.2
2018-Feb-16 22:30N 45°33' E 013°44'0 0.0
2018-Feb-16 20:27N 45°33' E 013°44'0 0.0
2018-Feb-16 19:57N 45°33' E 013°44'0 0.0
2018-Feb-16 19:21N 45°33' E 013°44'0 0.0
2018-Feb-16 19:00N 45°33' E 013°44'0 0.0
2018-Feb-16 17:36N 45°33' E 013°44'0 0.0
2018-Feb-16 17:27N 45°33' E 013°44'0 0.0
2018-Feb-16 16:54N 45°33' E 013°44'0 0.0
2018-Feb-16 16:18N 45°33' E 013°44'0 0.0
2018-Feb-16 16:00N 45°33' E 013°44'0 0.0
2018-Feb-16 15:30N 45°33' E 013°44'0 0.0
2018-Feb-16 14:54N 45°33' E 013°44'0 0.0
2018-Feb-16 14:30N 45°33' E 013°44'0 0.0
2018-Feb-16 14:00N 45°33' E 013°44'0 0.0
2018-Feb-16 13:30N 45°33' E 013°44'0 0.0
2018-Feb-16 13:00N 45°33' E 013°44'0 0.0
2018-Feb-16 12:30N 45°33' E 013°44'0 0.0
2018-Feb-16 12:00N 45°33' E 013°44'0 0.0
2018-Feb-16 11:30N 45°33' E 013°44'0 0.0
2018-Feb-16 11:00N 45°33' E 013°44'0 0.0
2018-Feb-16 10:24N 45°33' E 013°44'0 0.0
2018-Feb-16 10:00N 45°33' E 013°44'0 0.0
2018-Feb-16 09:27N 45°33' E 013°44'0 0.0
2018-Feb-16 08:54N 45°33' E 013°44'0 0.0
2018-Feb-16 08:30N 45°33' E 013°44'0 0.0
2018-Feb-16 08:00N 45°33' E 013°44'0 0.0
2018-Feb-16 07:30N 45°33' E 013°44'0 0.0
2018-Feb-16 07:00N 45°33' E 013°44'0 0.0
2018-Feb-16 06:27N 45°33' E 013°44'1 3.4
2018-Feb-16 06:00N 45°34' E 013°42'0 0.4
2018-Feb-16 05:30N 45°34' E 013°42'0 0.0
2018-Feb-16 04:54N 45°34' E 013°42'0 0.0
2018-Feb-16 04:27N 45°34' E 013°42'0 0.0
2018-Feb-16 04:00N 45°34' E 013°42'0 0.0
2018-Feb-16 03:30N 45°34' E 013°42'0 0.0
2018-Feb-16 03:00N 45°34' E 013°42'0 0.0
2018-Feb-16 02:30N 45°34' E 013°42'0 0.0
2018-Feb-16 02:00N 45°34' E 013°42'0 0.0
2018-Feb-16 01:30N 45°34' E 013°42'0 0.0
2018-Feb-16 00:57N 45°34' E 013°42'0 0.0
2018-Feb-16 00:27N 45°34' E 013°42'0 0.0
2018-Feb-16 00:00N 45°34' E 013°42'0 0.0
2018-Feb-15 23:18N 45°34' E 013°42'0 0.0
2018-Feb-15 23:00N 45°34' E 013°42'0 0.0
2018-Feb-15 22:30N 45°34' E 013°42'1 2.5
2018-Feb-15 22:00N 45°34' E 013°40'5 9.8
2018-Feb-15 21:30N 45°34' E 013°33'510.2
2018-Feb-15 21:00N 45°32' E 013°27'510.4
2018-Feb-15 20:31N 45°30' E 013°20'510.3
2018-Feb-15 20:01N 45°29' E 013°13'510.3
2018-Feb-15 19:31N 45°28' E 013°06'710.4
2018-Feb-15 18:53N 45°26' E 012°57'1810.3
2018-Feb-15 17:07N 45°22' E 012°31'110.2
2018-Feb-15 17:00N 45°23' E 012°30'510.5
2018-Feb-15 16:29N 45°26' E 012°24'3 5.4
2018-Feb-15 16:00N 45°26' E 012°20'1 1.7
2018-Feb-15 15:30N 45°26' E 012°19'0 0.0
2018-Feb-15 15:00N 45°26' E 012°19'0 0.0
2018-Feb-15 14:29N 45°26' E 012°19'0 0.0
2018-Feb-15 14:00N 45°26' E 012°19'0 0.0
2018-Feb-15 13:30N 45°26' E 012°19'0 0.0
2018-Feb-15 12:59N 45°26' E 012°19'0 0.0
2018-Feb-15 12:30N 45°26' E 012°19'0 0.0
2018-Feb-15 12:00N 45°26' E 012°19'0 0.0
2018-Feb-15 11:30N 45°26' E 012°19'0 0.0
2018-Feb-15 11:00N 45°26' E 012°19'0 0.0
2018-Feb-15 10:30N 45°26' E 012°19'0 0.0
2018-Feb-15 10:00N 45°26' E 012°19'0 0.0
2018-Feb-15 09:30N 45°26' E 012°19'0 0.0
2018-Feb-15 09:00N 45°26' E 012°19'0 0.0
2018-Feb-15 08:30N 45°26' E 012°19'0 0.0
2018-Feb-15 08:00N 45°26' E 012°19'0 0.0
2018-Feb-15 07:30N 45°26' E 012°19'0 0.0
2018-Feb-15 07:00N 45°26' E 012°19'0 0.0
2018-Feb-15 06:30N 45°26' E 012°19'0 0.0
2018-Feb-15 05:59N 45°26' E 012°19'0 0.0
2018-Feb-15 05:30N 45°26' E 012°19'0 0.0
2018-Feb-15 05:00N 45°26' E 012°19'0 0.0
2018-Feb-15 04:30N 45°26' E 012°19'0 0.0
2018-Feb-15 04:00N 45°26' E 012°19'0 0.0
2018-Feb-15 03:30N 45°26' E 012°19'0 0.0
2018-Feb-15 03:00N 45°26' E 012°19'0 0.0
2018-Feb-15 02:30N 45°26' E 012°19'0 0.0
2018-Feb-15 02:00N 45°26' E 012°19'0 0.0
2018-Feb-15 01:30N 45°26' E 012°19'0 0.0
2018-Feb-15 01:00N 45°26' E 012°19'0 0.0
2018-Feb-15 00:30N 45°26' E 012°19'0 0.0
2018-Feb-15 00:00N 45°26' E 012°19'0 0.0
2018-Feb-14 23:30N 45°26' E 012°19'0 0.0
2018-Feb-14 23:00N 45°26' E 012°19'1 3.0
2018-Feb-14 22:30N 45°26' E 012°21'3 5.8
2018-Feb-14 22:00N 45°25' E 012°25'4 7.9
2018-Feb-14 21:30N 45°23' E 012°30'15 9.9
2018-Feb-14 19:56N 45°26' E 012°52'610.6
2018-Feb-14 19:25N 45°28' E 012°59'410.7
2018-Feb-14 19:00N 45°30' E 013°05'510.7
2018-Feb-14 18:30N 45°32' E 013°12'510.7
2018-Feb-14 18:00N 45°34' E 013°20'510.7
2018-Feb-14 17:30N 45°36' E 013°26'510.6
2018-Feb-14 17:00N 45°38' E 013°33'510.4
2018-Feb-14 16:30N 45°39' E 013°41'4 1.6
2018-Feb-14 14:12N 45°39' E 013°46'0 0.0
2018-Feb-14 13:06N 45°39' E 013°46'0 0.0
2018-Feb-14 13:00N 45°39' E 013°46'0 0.0
2018-Feb-14 07:36N 45°39' E 013°46'0 0.0
2018-Feb-14 07:18N 45°39' E 013°46'0 0.0
2018-Feb-14 06:48N 45°39' E 013°46'0 0.0
2018-Feb-14 06:24N 45°39' E 013°46'0 0.0
2018-Feb-14 05:06N 45°39' E 013°46'0 0.0
2018-Feb-14 04:42N 45°39' E 013°46'0 0.0
2018-Feb-14 04:30N 45°39' E 013°46'0 0.0
2018-Feb-14 00:54N 45°39' E 013°46'0 0.0
2018-Feb-14 00:24N 45°39' E 013°46'0 0.0
2018-Feb-13 23:18N 45°39' E 013°46'0 0.0
2018-Feb-13 22:06N 45°39' E 013°46'0 0.0
2018-Feb-13 21:42N 45°39' E 013°46'0 0.0
2018-Feb-13 20:06N 45°39' E 013°46'0 0.0
2018-Feb-13 19:36N 45°39' E 013°46'0 0.0
2018-Feb-13 18:06N 45°39' E 013°46'0 0.0
2018-Feb-13 11:36N 45°39' E 013°46'0 0.0
2018-Feb-13 10:12N 45°39' E 013°46'0 0.0
2018-Feb-13 06:30N 45°39' E 013°46'0 0.0
2018-Feb-12 18:32N 45°39' E 013°46'0 0.0
2018-Feb-12 18:27N 45°39' E 013°46'0 0.0
2018-Feb-12 17:55N 45°39' E 013°46'0 0.0
2018-Feb-12 17:30N 45°39' E 013°46'2 4.8
2018-Feb-12 17:00N 45°39' E 013°42'5 9.2
2018-Feb-12 16:30N 45°41' E 013°37'5 9.7
2018-Feb-12 16:00N 45°46' E 013°38'0 0.0
2018-Feb-12 06:01N 45°46' E 013°38'0 5.3
2018-Feb-12 06:00N 45°46' E 013°38'4 7.5
2018-Feb-12 05:30N 45°42' E 013°38'4 8.3
2018-Feb-12 05:00N 45°38' E 013°37'4 8.2
2018-Feb-12 04:30N 45°35' E 013°33'4 8.3
2018-Feb-12 04:00N 45°33' E 013°29'4 7.3
2018-Feb-12 03:30N 45°30' E 013°26'4 8.7
2018-Feb-12 03:00N 45°25' E 013°27'510.3
2018-Feb-12 02:30N 45°20' E 013°28'510.1
2018-Feb-12 02:00N 45°15' E 013°28'510.0
2018-Feb-12 01:30N 45°10' E 013°29'5 9.9
2018-Feb-12 01:00N 45°06' E 013°33'4 5.8
2018-Feb-12 00:22N 45°05' E 013°38'0 0.0
2018-Feb-11 23:37N 45°05' E 013°38'0 0.0
2018-Feb-11 23:25N 45°05' E 013°38'0 0.0
2018-Feb-11 22:55N 45°05' E 013°38'0 0.0
2018-Feb-11 22:28N 45°05' E 013°38'0 0.0
2018-Feb-11 21:49N 45°05' E 013°38'0 0.0
2018-Feb-11 21:28N 45°05' E 013°38'0 0.0
2018-Feb-11 20:52N 45°05' E 013°38'0 0.0
2018-Feb-11 19:04N 45°05' E 013°38'0 0.0
2018-Feb-11 18:58N 45°05' E 013°38'0 0.0
2018-Feb-11 18:25N 45°05' E 013°38'0 0.0
2018-Feb-11 17:52N 45°05' E 013°38'0 0.0
2018-Feb-11 17:28N 45°05' E 013°38'0 0.0
2018-Feb-11 16:10N 45°05' E 013°38'0 0.0
2018-Feb-11 15:52N 45°05' E 013°38'0 0.0
2018-Feb-11 15:28N 45°05' E 013°38'0 0.0
2018-Feb-11 14:58N 45°05' E 013°38'0 0.0
2018-Feb-11 14:22N 45°05' E 013°38'0 0.0
2018-Feb-11 13:52N 45°05' E 013°38'0 0.0
2018-Feb-11 13:22N 45°05' E 013°38'0 0.0
2018-Feb-11 12:55N 45°05' E 013°38'0 0.0
2018-Feb-11 12:25N 45°05' E 013°38'0 0.0
2018-Feb-11 11:58N 45°05' E 013°38'0 0.1
2018-Feb-11 07:05N 45°05' E 013°38'1 9.7
2018-Feb-11 07:00N 45°05' E 013°37'510.5
2018-Feb-11 06:30N 44°59' E 013°38'7 0.3
2018-Feb-10 05:23N 44°53' E 013°42'4 9.1
2018-Feb-10 05:00N 44°56' E 013°39'5 9.1
2018-Feb-10 04:30N 45°00' E 013°36'5 8.9
2018-Feb-10 04:00N 45°04' E 013°33'4 9.0
2018-Feb-10 03:30N 45°08' E 013°31'4 8.9
2018-Feb-10 03:00N 45°13' E 013°29'5 9.1
2018-Feb-10 02:30N 45°17' E 013°27'5 9.0
2018-Feb-10 02:00N 45°21' E 013°25'5 9.0
2018-Feb-10 01:30N 45°25' E 013°22'5 9.1
2018-Feb-10 01:00N 45°30' E 013°20'4 7.6
2018-Feb-10 00:30N 45°33' E 013°20'5 9.1
2018-Feb-10 00:00N 45°35' E 013°26'5 9.3
2018-Feb-09 23:30N 45°37' E 013°33'5 9.5
2018-Feb-09 23:00N 45°36' E 013°39'210.2
2018-Feb-09 22:45N 45°34' E 013°42'  

Dump ship's entire track history